Terminal Aerodrome Forecast
Issued by NWS Boston, MA

Home | Current Version | Previous Version | Text Only | Print | Product List | Glossary On
Versions: 1 2 3 4 5 6 7 8 9 10 11 12 13 14 15 16 17 18 19 20 21 22 23 24 25 26 27 28 29 30 31 32 33 34 35 36 37 38 39 40 41 42 43 44 45 46 47 48 49
000
FTUS41 KBOX 050721 AAA
TAFPVD
TAF AMD
KPVD 050721Z 0507/0606 33008KT 5SM -RASNPL BR BKN020 OVC050
     FM050900 33006KT 5SM -SN BR OVC010
     FM051200 34007KT 2SM -SN BR OVC013
     FM051500 34006KT 5SM -SN BR OVC015
     FM051800 34006KT 5SM BR OVC025
     FM060000 33007KT P6SM OVC050
     FM060400 34007KT P6SM SCT090=

USA.gov is the U.S. government's official web portal to all federal, state and local government web resources and services.